EDV5198 KRDU-KDCA
Flight info
| Callsign | EDV5198 |
|---|---|
| Flight time | 0h 40m |
| Altitude | 25000 |
| Route | BEXGO5 BOUSY WAVES CAPSS4 |
| Aircraft | CRJ9/M-SDFGIRWY/S |
Departure
| Time | 2026-04-25 20:03 |
|---|---|
| Airport | Raleigh-Durham International Airport (KRDU) |
Arrival
| Time | 2026-04-25 20:44 |
|---|---|
| Airport | Ronald Reagan Washington National Airport (KDCA) |
| Time | Latitude | Longitude | Altitude | Speed | Heading |
|---|---|---|---|---|---|
| 2026-04-25 19:49 | 35.87729 | -78.79451 | 422 ft | 0 kts | 132° |
| 2026-04-25 19:57 | 35.87734 | -78.79457 | 414 ft | 2 kts | 131° |
| 2026-04-25 19:57 | 35.87745 | -78.79472 | 415 ft | 2 kts | 131° |
| 2026-04-25 19:57 | 35.87755 | -78.79487 | 420 ft | 2 kts | 129° |
| 2026-04-25 19:58 | 35.87763 | -78.79505 | 418 ft | 2 kts | 94° |
| 2026-04-25 19:58 | 35.87761 | -78.79515 | 416 ft | 0 kts | 48° |
| 2026-04-25 19:59 | 35.87763 | -78.79511 | 415 ft | 2 kts | 48° |
| 2026-04-25 19:59 | 35.87786 | -78.79483 | 421 ft | 7 kts | 45° |
| 2026-04-25 19:59 | 35.87834 | -78.79423 | 428 ft | 12 kts | 45° |
| 2026-04-25 19:59 | 35.87902 | -78.79340 | 419 ft | 17 kts | 45° |
| 2026-04-25 20:00 | 35.87998 | -78.79218 | 421 ft | 22 kts | 46° |
| 2026-04-25 20:00 | 35.88033 | -78.79177 | 422 ft | 21 kts | 44° |
| 2026-04-25 20:00 | 35.88170 | -78.78956 | 422 ft | 19 kts | 98° |
| 2026-04-25 20:00 | 35.88060 | -78.78803 | 421 ft | 28 kts | 137° |
| 2026-04-25 20:01 | 35.87806 | -78.78496 | 420 ft | 20 kts | 136° |
| 2026-04-25 20:01 | 35.87729 | -78.78384 | 423 ft | 10 kts | 96° |
| 2026-04-25 20:01 | 35.87780 | -78.78301 | 427 ft | 18 kts | 45° |
| 2026-04-25 20:02 | 35.87879 | -78.78178 | 422 ft | 21 kts | 44° |
| 2026-04-25 20:02 | 35.87969 | -78.78055 | 428 ft | 15 kts | 74° |
| 2026-04-25 20:02 | 35.87916 | -78.77967 | 417 ft | 15 kts | 184° |
| 2026-04-25 20:02 | 35.87878 | -78.77994 | 420 ft | 1 kts | 223° |
| 2026-04-25 20:03 | 35.87672 | -78.78244 | 426 ft | 80 kts | 225° |
| 2026-04-25 20:03 | 35.87113 | -78.78936 | 424 ft | 144 kts | 225° |
| 2026-04-25 20:03 | 35.86349 | -78.79890 | 853 ft | 164 kts | 226° |
| 2026-04-25 20:03 | 35.85539 | -78.80907 | 1681 ft | 170 kts | 225° |
| 2026-04-25 20:04 | 35.84611 | -78.82042 | 2016 ft | 207 kts | 218° |
| 2026-04-25 20:04 | 35.83226 | -78.82789 | 2617 ft | 230 kts | 188° |
| 2026-04-25 20:04 | 35.81634 | -78.82473 | 3451 ft | 241 kts | 159° |
| 2026-04-25 20:04 | 35.80278 | -78.81154 | 4145 ft | 261 kts | 129° |
| 2026-04-25 20:05 | 35.79612 | -78.79037 | 5023 ft | 270 kts | 96° |
| 2026-04-25 20:05 | 35.79870 | -78.76727 | 5846 ft | 281 kts | 69° |
| 2026-04-25 20:05 | 35.80977 | -78.74771 | 6740 ft | 278 kts | 40° |
| 2026-04-25 20:05 | 35.82610 | -78.73504 | 7577 ft | 279 kts | 25° |
| 2026-04-25 20:06 | 35.84383 | -78.72446 | 8277 ft | 287 kts | 23° |
| 2026-04-25 20:06 | 35.86185 | -78.71432 | 9107 ft | 288 kts | 22° |
| 2026-04-25 20:06 | 35.87991 | -78.70435 | 10157 ft | 279 kts | 21° |
| 2026-04-25 20:06 | 35.89763 | -78.69454 | 10879 ft | 285 kts | 24° |
| 2026-04-25 20:07 | 35.91580 | -78.68252 | 11221 ft | 306 kts | 28° |
| 2026-04-25 20:07 | 35.93495 | -78.66886 | 11425 ft | 330 kts | 28° |
| 2026-04-25 20:07 | 35.95508 | -78.65424 | 11956 ft | 340 kts | 28° |
| 2026-04-25 20:07 | 35.97564 | -78.63855 | 12359 ft | 356 kts | 31° |
| 2026-04-25 20:08 | 35.99707 | -78.62146 | 12641 ft | 373 kts | 31° |
| 2026-04-25 20:08 | 36.01874 | -78.60462 | 13668 ft | 367 kts | 30° |
| 2026-04-25 20:08 | 36.04071 | -78.58808 | 14342 ft | 370 kts | 29° |
| 2026-04-25 20:08 | 36.06263 | -78.57179 | 14988 ft | 373 kts | 29° |
| 2026-04-25 20:09 | 36.08474 | -78.55530 | 15671 ft | 375 kts | 28° |
| 2026-04-25 20:09 | 36.10722 | -78.53850 | 16302 ft | 378 kts | 29° |
| 2026-04-25 20:09 | 36.12987 | -78.52159 | 16931 ft | 381 kts | 28° |
| 2026-04-25 20:09 | 36.15268 | -78.50456 | 17551 ft | 384 kts | 28° |
| 2026-04-25 20:10 | 36.17570 | -78.48733 | 18135 ft | 388 kts | 28° |
| 2026-04-25 20:10 | 36.19894 | -78.46995 | 18569 ft | 394 kts | 28° |
| 2026-04-25 20:10 | 36.22226 | -78.45252 | 19005 ft | 399 kts | 28° |
| 2026-04-25 20:10 | 36.24609 | -78.43466 | 19494 ft | 403 kts | 28° |
| 2026-04-25 20:11 | 36.27027 | -78.41663 | 19984 ft | 406 kts | 28° |
| 2026-04-25 20:11 | 36.29346 | -78.39745 | 20433 ft | 411 kts | 34° |
| 2026-04-25 20:11 | 36.31633 | -78.37581 | 20875 ft | 416 kts | 36° |
| 2026-04-25 20:11 | 36.33916 | -78.35362 | 21311 ft | 419 kts | 35° |
| 2026-04-25 20:12 | 36.36241 | -78.33154 | 21738 ft | 422 kts | 34° |
| 2026-04-25 20:12 | 36.38598 | -78.30952 | 22163 ft | 426 kts | 34° |
| 2026-04-25 20:12 | 36.40978 | -78.28736 | 22569 ft | 429 kts | 34° |
| 2026-04-25 20:12 | 36.41785 | -78.27990 | 22722 ft | 430 kts | 34° |
| 2026-04-25 20:13 | 36.45798 | -78.24251 | 23378 ft | 436 kts | 34° |
| 2026-04-25 20:13 | 36.47409 | -78.22748 | 23603 ft | 438 kts | 34° |
| 2026-04-25 20:13 | 36.50686 | -78.19713 | 24064 ft | 441 kts | 34° |
| 2026-04-25 20:13 | 36.52307 | -78.18182 | 24287 ft | 443 kts | 35° |
| 2026-04-25 20:14 | 36.55564 | -78.15071 | 24620 ft | 450 kts | 34° |
| 2026-04-25 20:14 | 36.58078 | -78.12698 | 24768 ft | 458 kts | 34° |
| 2026-04-25 20:14 | 36.60643 | -78.10275 | 24828 ft | 468 kts | 34° |
| 2026-04-25 20:14 | 36.63263 | -78.07799 | 24853 ft | 478 kts | 34° |
| 2026-04-25 20:15 | 36.65939 | -78.05268 | 24876 ft | 487 kts | 34° |
| 2026-04-25 20:15 | 36.68663 | -78.02689 | 24881 ft | 496 kts | 35° |
| 2026-04-25 20:15 | 36.70490 | -78.00960 | 24881 ft | 497 kts | 34° |
| 2026-04-25 20:15 | 36.73257 | -77.98350 | 24875 ft | 497 kts | 34° |
| 2026-04-25 20:16 | 36.76004 | -77.95744 | 24869 ft | 497 kts | 34° |
| 2026-04-25 20:16 | 36.78755 | -77.93127 | 24858 ft | 496 kts | 34° |
| 2026-04-25 20:16 | 36.81524 | -77.90559 | 24858 ft | 494 kts | 31° |
| 2026-04-25 20:16 | 36.84485 | -77.88412 | 24844 ft | 491 kts | 24° |
| 2026-04-25 20:17 | 36.87143 | -77.86853 | 24819 ft | 489 kts | 20° |
| 2026-04-25 20:17 | 36.89345 | -77.85668 | 24812 ft | 488 kts | 20° |
| 2026-04-25 20:17 | 36.92460 | -77.83980 | 24809 ft | 489 kts | 21° |
| 2026-04-25 20:18 | 36.95554 | -77.82189 | 24807 ft | 489 kts | 22° |
| 2026-04-25 20:18 | 36.98623 | -77.80369 | 24815 ft | 489 kts | 22° |
| 2026-04-25 20:18 | 37.01708 | -77.78562 | 24819 ft | 489 kts | 21° |
| 2026-04-25 20:18 | 37.04747 | -77.76781 | 24835 ft | 488 kts | 22° |
| 2026-04-25 20:19 | 37.07826 | -77.74974 | 24836 ft | 488 kts | 21° |
| 2026-04-25 20:19 | 37.10902 | -77.73168 | 24845 ft | 488 kts | 21° |
| 2026-04-25 20:19 | 37.13984 | -77.71352 | 24841 ft | 488 kts | 21° |
| 2026-04-25 20:19 | 37.17056 | -77.69542 | 24842 ft | 488 kts | 21° |
| 2026-04-25 20:20 | 37.20140 | -77.67729 | 24842 ft | 488 kts | 21° |
| 2026-04-25 20:20 | 37.23215 | -77.65912 | 24840 ft | 488 kts | 21° |
| 2026-04-25 20:20 | 37.26294 | -77.64098 | 24846 ft | 488 kts | 21° |
| 2026-04-25 20:20 | 37.29364 | -77.62279 | 24853 ft | 488 kts | 21° |
| 2026-04-25 20:21 | 37.32442 | -77.60463 | 24855 ft | 488 kts | 22° |
| 2026-04-25 20:21 | 37.35475 | -77.58662 | 24851 ft | 488 kts | 22° |
| 2026-04-25 20:21 | 37.38547 | -77.56844 | 24850 ft | 488 kts | 22° |
| 2026-04-25 20:21 | 37.41626 | -77.55018 | 24848 ft | 488 kts | 22° |
| 2026-04-25 20:22 | 37.44693 | -77.53194 | 24847 ft | 488 kts | 22° |
| 2026-04-25 20:22 | 37.46767 | -77.51964 | 24847 ft | 488 kts | 22° |
| 2026-04-25 20:22 | 37.50839 | -77.49540 | 24850 ft | 488 kts | 22° |
| 2026-04-25 20:22 | 37.53907 | -77.47723 | 24866 ft | 488 kts | 21° |
| 2026-04-25 20:23 | 37.56978 | -77.45899 | 24859 ft | 488 kts | 22° |
| 2026-04-25 20:23 | 37.60114 | -77.44289 | 24633 ft | 483 kts | 14° |
| 2026-04-25 20:23 | 37.63310 | -77.43171 | 24209 ft | 471 kts | 9° |
| 2026-04-25 20:23 | 37.66480 | -77.42293 | 23730 ft | 464 kts | 8° |
| 2026-04-25 20:24 | 37.69631 | -77.41436 | 22947 ft | 461 kts | 8° |
| 2026-04-25 20:24 | 37.72706 | -77.40545 | 22029 ft | 453 kts | 10° |
| 2026-04-25 20:24 | 37.75711 | -77.39615 | 21119 ft | 437 kts | 10° |
| 2026-04-25 20:24 | 37.78616 | -77.38705 | 20236 ft | 423 kts | 10° |
| 2026-04-25 20:25 | 37.81439 | -77.37830 | 19383 ft | 412 kts | 10° |
| 2026-04-25 20:25 | 37.84186 | -77.36985 | 18597 ft | 401 kts | 10° |
| 2026-04-25 20:25 | 37.86851 | -77.36157 | 17963 ft | 387 kts | 10° |
| 2026-04-25 20:25 | 37.89422 | -77.35363 | 17449 ft | 371 kts | 10° |
| 2026-04-25 20:26 | 37.91925 | -77.34572 | 16800 ft | 370 kts | 11° |
| 2026-04-25 20:26 | 37.94418 | -77.33782 | 16183 ft | 369 kts | 11° |
| 2026-04-25 20:26 | 37.96911 | -77.33005 | 15587 ft | 369 kts | 11° |
| 2026-04-25 20:26 | 37.99402 | -77.32239 | 15008 ft | 368 kts | 11° |
| 2026-04-25 20:27 | 38.01889 | -77.31481 | 14419 ft | 367 kts | 11° |
| 2026-04-25 20:27 | 38.04370 | -77.30722 | 13858 ft | 366 kts | 11° |
| 2026-04-25 20:27 | 38.06842 | -77.29962 | 13246 ft | 365 kts | 11° |
| 2026-04-25 20:27 | 38.09290 | -77.29206 | 12979 ft | 361 kts | 11° |
| 2026-04-25 20:28 | 38.11732 | -77.28459 | 12786 ft | 361 kts | 11° |
| 2026-04-25 20:28 | 38.14175 | -77.27696 | 12600 ft | 362 kts | 11° |
| 2026-04-25 20:28 | 38.16615 | -77.26929 | 12448 ft | 361 kts | 11° |
| 2026-04-25 20:28 | 38.19055 | -77.26166 | 12291 ft | 360 kts | 11° |
| 2026-04-25 20:29 | 38.21476 | -77.25332 | 12121 ft | 360 kts | 13° |
| 2026-04-25 20:29 | 38.23831 | -77.24437 | 11940 ft | 356 kts | 14° |
| 2026-04-25 20:29 | 38.26187 | -77.23538 | 11756 ft | 352 kts | 13° |
| 2026-04-25 20:29 | 38.28523 | -77.22655 | 11562 ft | 348 kts | 13° |
| 2026-04-25 20:30 | 38.30834 | -77.21778 | 11392 ft | 346 kts | 13° |
| 2026-04-25 20:30 | 38.33142 | -77.20908 | 11248 ft | 346 kts | 13° |
| 2026-04-25 20:30 | 38.35451 | -77.20040 | 11091 ft | 345 kts | 13° |
| 2026-04-25 20:30 | 38.37756 | -77.19170 | 10949 ft | 345 kts | 14° |
| 2026-04-25 20:31 | 38.40051 | -77.18268 | 10843 ft | 342 kts | 14° |
| 2026-04-25 20:31 | 38.42277 | -77.17401 | 10737 ft | 327 kts | 14° |
| 2026-04-25 20:31 | 38.44414 | -77.16555 | 10613 ft | 316 kts | 14° |
| 2026-04-25 20:31 | 38.46473 | -77.15738 | 10488 ft | 305 kts | 14° |
| 2026-04-25 20:32 | 38.48470 | -77.14954 | 10377 ft | 296 kts | 13° |
| 2026-04-25 20:32 | 38.50464 | -77.14186 | 10285 ft | 303 kts | 13° |
| 2026-04-25 20:32 | 38.52499 | -77.13410 | 10213 ft | 307 kts | 13° |
| 2026-04-25 20:32 | 38.54552 | -77.12625 | 10142 ft | 309 kts | 13° |
| 2026-04-25 20:33 | 38.56620 | -77.11827 | 10070 ft | 311 kts | 13° |
| 2026-04-25 20:33 | 38.58666 | -77.11037 | 10066 ft | 311 kts | 13° |
| 2026-04-25 20:33 | 38.60725 | -77.10238 | 9801 ft | 307 kts | 13° |
| 2026-04-25 20:33 | 38.62100 | -77.09705 | 9567 ft | 305 kts | 13° |
| 2026-04-25 20:34 | 38.64769 | -77.08673 | 9136 ft | 300 kts | 13° |
| 2026-04-25 20:34 | 38.66762 | -77.07906 | 8804 ft | 297 kts | 14° |
| 2026-04-25 20:34 | 38.68731 | -77.07160 | 8440 ft | 294 kts | 11° |
| 2026-04-25 20:34 | 38.70727 | -77.06733 | 8123 ft | 289 kts | 2° |
| 2026-04-25 20:35 | 38.72729 | -77.06552 | 7825 ft | 287 kts | 359° |
| 2026-04-25 20:35 | 38.74721 | -77.06429 | 7529 ft | 286 kts | 359° |
| 2026-04-25 20:35 | 38.76675 | -77.06559 | 7260 ft | 278 kts | 338° |
| 2026-04-25 20:35 | 38.78359 | -77.07595 | 7113 ft | 266 kts | 326° |
| 2026-04-25 20:36 | 38.79915 | -77.08860 | 6770 ft | 267 kts | 323° |
| 2026-04-25 20:36 | 38.81458 | -77.10193 | 6430 ft | 268 kts | 322° |
| 2026-04-25 20:36 | 38.82989 | -77.11534 | 6199 ft | 264 kts | 321° |
| 2026-04-25 20:36 | 38.84361 | -77.13000 | 6123 ft | 251 kts | 313° |
| 2026-04-25 20:37 | 38.85587 | -77.14582 | 5807 ft | 249 kts | 310° |
| 2026-04-25 20:37 | 38.86773 | -77.16188 | 5511 ft | 246 kts | 310° |
| 2026-04-25 20:37 | 38.87955 | -77.17744 | 5221 ft | 243 kts | 312° |
| 2026-04-25 20:37 | 38.89168 | -77.19245 | 4922 ft | 241 kts | 313° |
| 2026-04-25 20:38 | 38.90355 | -77.20718 | 4556 ft | 241 kts | 313° |
| 2026-04-25 20:38 | 38.91563 | -77.22221 | 4179 ft | 243 kts | 314° |
| 2026-04-25 20:38 | 38.92975 | -77.23415 | 3822 ft | 245 kts | 338° |
| 2026-04-25 20:38 | 38.94662 | -77.23760 | 3362 ft | 250 kts | 6° |
| 2026-04-25 20:39 | 38.96299 | -77.23140 | 3052 ft | 243 kts | 34° |
| 2026-04-25 20:39 | 38.97409 | -77.21648 | 2740 ft | 225 kts | 68° |
| 2026-04-25 20:39 | 38.97665 | -77.19784 | 2711 ft | 203 kts | 99° |
| 2026-04-25 20:39 | 38.97464 | -77.18633 | 2692 ft | 190 kts | 108° |
| 2026-04-25 20:40 | 38.96895 | -77.16667 | 2759 ft | 168 kts | 120° |
| 2026-04-25 20:40 | 38.96178 | -77.15496 | 2558 ft | 169 kts | 132° |
| 2026-04-25 20:40 | 38.95351 | -77.14402 | 2344 ft | 172 kts | 132° |
| 2026-04-25 20:40 | 38.94490 | -77.13311 | 2104 ft | 176 kts | 133° |
| 2026-04-25 20:41 | 38.93586 | -77.12223 | 1937 ft | 180 kts | 134° |
| 2026-04-25 20:41 | 38.92580 | -77.11295 | 1812 ft | 172 kts | 143° |
| 2026-04-25 20:41 | 38.91667 | -77.10526 | 1745 ft | 146 kts | 139° |
| 2026-04-25 20:41 | 38.91009 | -77.09580 | 1580 ft | 142 kts | 120° |
| 2026-04-25 20:42 | 38.90542 | -77.08473 | 1417 ft | 142 kts | 112° |
| 2026-04-25 20:42 | 38.90032 | -77.07362 | 1258 ft | 147 kts | 121° |
| 2026-04-25 20:42 | 38.89381 | -77.06333 | 1069 ft | 149 kts | 128° |
| 2026-04-25 20:42 | 38.88669 | -77.05385 | 849 ft | 146 kts | 131° |
| 2026-04-25 20:43 | 38.87897 | -77.04553 | 652 ft | 148 kts | 146° |
| 2026-04-25 20:43 | 38.86953 | -77.04020 | 271 ft | 149 kts | 158° |
| 2026-04-25 20:43 | 38.85957 | -77.03856 | 35 ft | 139 kts | 170° |
| 2026-04-25 20:43 | 38.85109 | -77.03770 | 22 ft | 104 kts | 174° |
| 2026-04-25 20:44 | 38.84728 | -77.03776 | 23 ft | 18 kts | 203° |
| 2026-04-25 20:44 | 38.84706 | -77.03864 | 23 ft | 13 kts | 334° |
| 2026-04-25 20:44 | 38.84808 | -77.03884 | 21 ft | 17 kts | 355° |
| 2026-04-25 20:44 | 38.84946 | -77.03895 | 18 ft | 22 kts | 355° |
| 2026-04-25 20:45 | 38.85102 | -77.03912 | 20 ft | 23 kts | 355° |
| 2026-04-25 20:45 | 38.85253 | -77.03927 | 20 ft | 14 kts | 355° |
| 2026-04-25 20:45 | 38.85338 | -77.03969 | 21 ft | 15 kts | 288° |
| 2026-04-25 20:45 | 38.85319 | -77.04103 | 23 ft | 16 kts | 251° |
| 2026-04-25 20:46 | 38.85285 | -77.04202 | 23 ft | 10 kts | 216° |
| 2026-04-25 20:46 | 38.85247 | -77.04206 | 23 ft | 2 kts | 163° |
| 2026-04-25 20:46 | 38.85239 | -77.04203 | 23 ft | 0 kts | 163° |